sensor_id;sensor_type;location;lat;lon;timestamp;pressure;altitude;pressure_sealevel;temperature;humidity
15817;BME280;8009;50.070;8.232;2022-12-20T00:01:49;100530.81;;;2.88;78.29
15817;BME280;8009;50.070;8.232;2022-12-20T00:04:19;100521.72;;;2.94;77.81
15817;BME280;8009;50.070;8.232;2022-12-20T00:06:48;100530.59;;;2.69;79.13
15817;BME280;8009;50.070;8.232;2022-12-20T00:09:20;100508.47;;;2.66;79.19
15817;BME280;8009;50.070;8.232;2022-12-20T00:11:50;100518.84;;;2.75;78.80
15817;BME280;8009;50.070;8.232;2022-12-20T00:14:20;100517.09;;;2.49;79.92
15817;BME280;8009;50.070;8.232;2022-12-20T00:16:48;100501.94;;;2.50;80.20
15817;BME280;8009;50.070;8.232;2022-12-20T00:19:19;100500.69;;;2.85;79.24
15817;BME280;8009;50.070;8.232;2022-12-20T00:21:48;100497.53;;;2.74;79.53
15817;BME280;8009;50.070;8.232;2022-12-20T00:24:22;100499.72;;;2.87;78.30
15817;BME280;8009;50.070;8.232;2022-12-20T00:26:51;100503.09;;;2.42;80.16
15817;BME280;8009;50.070;8.232;2022-12-20T00:29:19;100494.13;;;2.70;79.72
15817;BME280;8009;50.070;8.232;2022-12-20T00:31:48;100490.91;;;2.60;79.43
15817;BME280;8009;50.070;8.232;2022-12-20T00:34:17;100495.06;;;2.69;79.29
15817;BME280;8009;50.070;8.232;2022-12-20T00:36:46;100489.38;;;2.78;79.03
15817;BME280;8009;50.070;8.232;2022-12-20T00:39:14;100497.38;;;2.78;79.29
15817;BME280;8009;50.070;8.232;2022-12-20T00:41:45;100486.13;;;2.95;78.38
15817;BME280;8009;50.070;8.232;2022-12-20T00:44:14;100490.06;;;3.08;77.80
15817;BME280;8009;50.070;8.232;2022-12-20T00:46:42;100482.13;;;3.07;77.64
15817;BME280;8009;50.070;8.232;2022-12-20T00:49:11;100484.50;;;3.14;77.72
15817;BME280;8009;50.070;8.232;2022-12-20T00:51:40;100496.88;;;2.92;78.67
15817;BME280;8009;50.070;8.232;2022-12-20T00:54:09;100495.34;;;3.10;78.06
15817;BME280;8009;50.070;8.232;2022-12-20T00:56:38;100488.41;;;3.06;78.15
15817;BME280;8009;50.070;8.232;2022-12-20T00:59:09;100485.75;;;3.04;78.12
15817;BME280;8009;50.070;8.232;2022-12-20T01:01:38;100483.81;;;3.09;78.32
15817;BME280;8009;50.070;8.232;2022-12-20T01:04:06;100485.56;;;3.10;77.71
15817;BME280;8009;50.070;8.232;2022-12-20T01:06:35;100482.91;;;3.09;78.08
15817;BME280;8009;50.070;8.232;2022-12-20T01:09:04;100479.06;;;3.17;77.95
15817;BME280;8009;50.070;8.232;2022-12-20T01:11:35;100486.88;;;3.22;77.45
15817;BME280;8009;50.070;8.232;2022-12-20T01:14:06;100491.56;;;3.15;77.04
15817;BME280;8009;50.070;8.232;2022-12-20T01:16:39;100488.78;;;3.18;77.03
15817;BME280;8009;50.070;8.232;2022-12-20T01:19:09;100490.41;;;3.23;76.85
15817;BME280;8009;50.070;8.232;2022-12-20T01:21:39;100496.88;;;2.92;78.46
15817;BME280;8009;50.070;8.232;2022-12-20T01:24:09;100489.88;;;2.64;79.25
15817;BME280;8009;50.070;8.232;2022-12-20T01:26:37;100493.63;;;2.84;79.01
15817;BME280;8009;50.070;8.232;2022-12-20T01:29:06;100486.28;;;2.90;78.80
15817;BME280;8009;50.070;8.232;2022-12-20T01:31:37;100500.66;;;2.86;79.03
15817;BME280;8009;50.070;8.232;2022-12-20T01:34:05;100492.53;;;2.89;79.25
15817;BME280;8009;50.070;8.232;2022-12-20T01:36:35;100495.66;;;2.52;80.85
15817;BME280;8009;50.070;8.232;2022-12-20T01:39:08;100491.63;;;2.90;79.27
15817;BME280;8009;50.070;8.232;2022-12-20T01:41:39;100484.91;;;3.04;78.68
15817;BME280;8009;50.070;8.232;2022-12-20T01:47:09;100466.09;;;2.83;79.98
15817;BME280;8009;50.070;8.232;2022-12-20T01:49:41;100468.38;;;3.17;78.95
15817;BME280;8009;50.070;8.232;2022-12-20T01:52:13;100466.91;;;2.85;79.02
15817;BME280;8009;50.070;8.232;2022-12-20T01:54:45;100458.88;;;3.10;77.94
15817;BME280;8009;50.070;8.232;2022-12-20T01:57:18;100453.53;;;3.10;78.28
15817;BME280;8009;50.070;8.232;2022-12-20T01:59:49;100447.56;;;3.04;78.74
15817;BME280;8009;50.070;8.232;2022-12-20T02:02:22;100438.47;;;3.09;77.80
15817;BME280;8009;50.070;8.232;2022-12-20T02:04:52;100434.50;;;3.20;78.07
15817;BME280;8009;50.070;8.232;2022-12-20T02:07:23;100435.94;;;3.05;78.69
15817;BME280;8009;50.070;8.232;2022-12-20T02:09:55;100439.66;;;3.01;79.00
15817;BME280;8009;50.070;8.232;2022-12-20T02:12:29;100426.69;;;2.91;78.87
15817;BME280;8009;50.070;8.232;2022-12-20T02:15:16;100412.00;;;3.03;78.67
15817;BME280;8009;50.070;8.232;2022-12-20T02:18:01;100414.31;;;3.12;78.56
15817;BME280;8009;50.070;8.232;2022-12-20T02:20:50;100403.63;;;3.12;78.09
15817;BME280;8009;50.070;8.232;2022-12-20T02:23:37;100404.09;;;3.24;77.91
15817;BME280;8009;50.070;8.232;2022-12-20T02:26:19;100404.34;;;3.17;78.93
15817;BME280;8009;50.070;8.232;2022-12-20T02:29:11;100418.47;;;3.20;77.85
15817;BME280;8009;50.070;8.232;2022-12-20T02:31:49;100411.41;;;3.18;77.65
15817;BME280;8009;50.070;8.232;2022-12-20T02:34:24;100406.75;;;3.24;78.08
15817;BME280;8009;50.070;8.232;2022-12-20T02:36:53;100401.41;;;3.02;79.01
15817;BME280;8009;50.070;8.232;2022-12-20T02:39:22;100411.69;;;3.11;78.59
15817;BME280;8009;50.070;8.232;2022-12-20T02:42:01;100403.28;;;3.22;78.10
15817;BME280;8009;50.070;8.232;2022-12-20T02:44:40;100402.56;;;3.16;78.20
15817;BME280;8009;50.070;8.232;2022-12-20T02:47:32;100396.19;;;2.99;78.94
15817;BME280;8009;50.070;8.232;2022-12-20T02:50:02;100384.84;;;3.15;78.27
15817;BME280;8009;50.070;8.232;2022-12-20T02:52:32;100382.81;;;3.22;77.76
15817;BME280;8009;50.070;8.232;2022-12-20T02:55:02;100386.63;;;3.15;78.35
15817;BME280;8009;50.070;8.232;2022-12-20T02:57:38;100392.38;;;3.04;78.79
15817;BME280;8009;50.070;8.232;2022-12-20T03:00:12;100404.38;;;3.16;77.92
15817;BME280;8009;50.070;8.232;2022-12-20T03:02:46;100409.50;;;3.22;78.22
15817;BME280;8009;50.070;8.232;2022-12-20T03:05:28;100404.22;;;3.21;77.95
15817;BME280;8009;50.070;8.232;2022-12-20T03:07:58;100404.16;;;3.22;77.52
15817;BME280;8009;50.070;8.232;2022-12-20T03:10:30;100400.50;;;3.25;78.08
15817;BME280;8009;50.070;8.232;2022-12-20T03:12:59;100404.34;;;3.17;78.52
15817;BME280;8009;50.070;8.232;2022-12-20T03:15:27;100399.47;;;3.29;78.74
15817;BME280;8009;50.070;8.232;2022-12-20T03:17:59;100386.13;;;3.29;78.00
15817;BME280;8009;50.070;8.232;2022-12-20T03:20:28;100387.91;;;3.28;78.58
15817;BME280;8009;50.070;8.232;2022-12-20T03:22:57;100402.66;;;2.68;80.42
15817;BME280;8009;50.070;8.232;2022-12-20T03:25:27;100397.25;;;2.93;80.20
15817;BME280;8009;50.070;8.232;2022-12-20T03:27:55;100383.97;;;3.15;79.40
15817;BME280;8009;50.070;8.232;2022-12-20T03:30:25;100373.06;;;3.21;79.17
15817;BME280;8009;50.070;8.232;2022-12-20T03:32:54;100368.25;;;3.07;80.17
15817;BME280;8009;50.070;8.232;2022-12-20T03:35:25;100369.03;;;3.33;78.93
15817;BME280;8009;50.070;8.232;2022-12-20T03:37:53;100359.28;;;3.32;79.06
15817;BME280;8009;50.070;8.232;2022-12-20T03:40:22;100358.69;;;3.25;79.01
15817;BME280;8009;50.070;8.232;2022-12-20T03:42:51;100370.84;;;2.87;80.31
15817;BME280;8009;50.070;8.232;2022-12-20T03:45:22;100370.53;;;2.95;80.63
15817;BME280;8009;50.070;8.232;2022-12-20T03:47:50;100362.13;;;3.05;80.03
15817;BME280;8009;50.070;8.232;2022-12-20T03:50:19;100368.19;;;3.32;79.05
15817;BME280;8009;50.070;8.232;2022-12-20T03:52:50;100374.00;;;3.42;78.15
15817;BME280;8009;50.070;8.232;2022-12-20T03:55:19;100385.09;;;3.09;79.69
15817;BME280;8009;50.070;8.232;2022-12-20T03:57:48;100378.72;;;3.35;78.36
15817;BME280;8009;50.070;8.232;2022-12-20T04:00:17;100367.88;;;3.16;79.11
15817;BME280;8009;50.070;8.232;2022-12-20T04:02:46;100373.41;;;3.12;79.42
15817;BME280;8009;50.070;8.232;2022-12-20T04:05:14;100370.84;;;3.32;78.99
15817;BME280;8009;50.070;8.232;2022-12-20T04:07:43;100359.72;;;3.43;78.55
15817;BME280;8009;50.070;8.232;2022-12-20T04:10:14;100357.47;;;3.54;78.30
15817;BME280;8009;50.070;8.232;2022-12-20T04:12:43;100360.22;;;3.53;78.15
15817;BME280;8009;50.070;8.232;2022-12-20T04:15:11;100362.34;;;3.45;78.85
15817;BME280;8009;50.070;8.232;2022-12-20T04:17:41;100357.84;;;3.23;79.70
15817;BME280;8009;50.070;8.232;2022-12-20T04:20:13;100343.25;;;3.32;79.20
15817;BME280;8009;50.070;8.232;2022-12-20T04:22:49;100329.97;;;3.52;78.22
15817;BME280;8009;50.070;8.232;2022-12-20T04:25:21;100334.06;;;3.39;79.06
15817;BME280;8009;50.070;8.232;2022-12-20T04:27:49;100327.69;;;3.43;78.60
15817;BME280;8009;50.070;8.232;2022-12-20T04:30:18;100317.81;;;3.45;78.85
15817;BME280;8009;50.070;8.232;2022-12-20T04:32:47;100325.50;;;3.53;77.44
15817;BME280;8009;50.070;8.232;2022-12-20T04:35:19;100314.66;;;3.35;78.53
15817;BME280;8009;50.070;8.232;2022-12-20T04:37:47;100313.22;;;3.27;79.25
15817;BME280;8009;50.070;8.232;2022-12-20T04:40:16;100323.78;;;3.08;80.24
15817;BME280;8009;50.070;8.232;2022-12-20T04:42:47;100339.44;;;3.17;79.53
15817;BME280;8009;50.070;8.232;2022-12-20T04:45:15;100341.97;;;2.98;80.22
15817;BME280;8009;50.070;8.232;2022-12-20T04:47:44;100330.22;;;3.24;79.90
15817;BME280;8009;50.070;8.232;2022-12-20T04:50:12;100332.09;;;3.44;79.07
15817;BME280;8009;50.070;8.232;2022-12-20T04:52:40;100328.13;;;3.10;80.72
15817;BME280;8009;50.070;8.232;2022-12-20T04:55:21;100329.91;;;3.32;80.45
15817;BME280;8009;50.070;8.232;2022-12-20T04:57:52;100338.53;;;3.60;78.75
15817;BME280;8009;50.070;8.232;2022-12-20T05:00:22;100335.53;;;3.48;78.69
15817;BME280;8009;50.070;8.232;2022-12-20T05:02:51;100328.25;;;3.51;79.06
15817;BME280;8009;50.070;8.232;2022-12-20T05:05:22;100325.00;;;3.65;78.35
15817;BME280;8009;50.070;8.232;2022-12-20T05:07:52;100332.69;;;3.73;78.49
15817;BME280;8009;50.070;8.232;2022-12-20T05:10:21;100319.19;;;3.76;77.37
15817;BME280;8009;50.070;8.232;2022-12-20T05:12:52;100322.63;;;3.79;77.82
15817;BME280;8009;50.070;8.232;2022-12-20T05:15:21;100329.88;;;3.76;77.89
15817;BME280;8009;50.070;8.232;2022-12-20T05:17:50;100331.63;;;3.55;78.48
15817;BME280;8009;50.070;8.232;2022-12-20T05:20:23;100327.00;;;3.38;80.32
15817;BME280;8009;50.070;8.232;2022-12-20T05:22:54;100337.19;;;3.06;81.65
15817;BME280;8009;50.070;8.232;2022-12-20T05:25:37;100332.84;;;3.26;80.89
15817;BME280;8009;50.070;8.232;2022-12-20T05:28:20;100325.69;;;3.04;81.19
15817;BME280;8009;50.070;8.232;2022-12-20T05:30:49;100306.31;;;3.43;80.40
15817;BME280;8009;50.070;8.232;2022-12-20T05:33:18;100304.28;;;3.50;79.88
15817;BME280;8009;50.070;8.232;2022-12-20T05:35:47;100308.81;;;3.48;79.48
15817;BME280;8009;50.070;8.232;2022-12-20T05:38:15;100307.81;;;3.50;79.55
15817;BME280;8009;50.070;8.232;2022-12-20T05:40:46;100305.22;;;3.69;79.33
15817;BME280;8009;50.070;8.232;2022-12-20T05:43:16;100304.78;;;3.59;79.67
15817;BME280;8009;50.070;8.232;2022-12-20T05:45:50;100305.00;;;3.53;79.55
15817;BME280;8009;50.070;8.232;2022-12-20T05:48:21;100307.16;;;3.65;78.68
15817;BME280;8009;50.070;8.232;2022-12-20T05:50:50;100297.63;;;3.60;78.78
15817;BME280;8009;50.070;8.232;2022-12-20T05:53:20;100288.13;;;3.53;79.16
15817;BME280;8009;50.070;8.232;2022-12-20T05:55:50;100292.16;;;3.63;78.48
15817;BME280;8009;50.070;8.232;2022-12-20T05:58:19;100287.81;;;3.60;78.05
15817;BME280;8009;50.070;8.232;2022-12-20T06:00:50;100287.59;;;3.23;79.26
15817;BME280;8009;50.070;8.232;2022-12-20T06:03:18;100286.84;;;3.41;79.00
15817;BME280;8009;50.070;8.232;2022-12-20T06:05:47;100289.19;;;3.49;79.53
15817;BME280;8009;50.070;8.232;2022-12-20T06:08:15;100284.06;;;3.22;80.69
15817;BME280;8009;50.070;8.232;2022-12-20T06:10:47;100283.25;;;3.62;79.15
15817;BME280;8009;50.070;8.232;2022-12-20T06:13:15;100285.38;;;3.54;79.39
15817;BME280;8009;50.070;8.232;2022-12-20T06:15:44;100284.69;;;3.29;80.64
15817;BME280;8009;50.070;8.232;2022-12-20T06:18:17;100282.88;;;3.51;79.70
15817;BME280;8009;50.070;8.232;2022-12-20T06:20:48;100288.06;;;3.54;79.43
15817;BME280;8009;50.070;8.232;2022-12-20T06:23:18;100278.94;;;3.60;79.33
15817;BME280;8009;50.070;8.232;2022-12-20T06:25:51;100285.75;;;3.67;78.37
15817;BME280;8009;50.070;8.232;2022-12-20T06:28:22;100285.22;;;3.79;78.12
15817;BME280;8009;50.070;8.232;2022-12-20T06:30:55;100288.97;;;3.75;78.70
15817;BME280;8009;50.070;8.232;2022-12-20T06:33:27;100295.69;;;3.63;80.23
15817;BME280;8009;50.070;8.232;2022-12-20T06:35:55;100295.97;;;3.78;78.43
15817;BME280;8009;50.070;8.232;2022-12-20T06:38:24;100296.34;;;3.89;78.13
15817;BME280;8009;50.070;8.232;2022-12-20T06:40:52;100292.91;;;3.87;78.89
15817;BME280;8009;50.070;8.232;2022-12-20T06:43:20;100297.84;;;3.76;79.28
15817;BME280;8009;50.070;8.232;2022-12-20T06:45:49;100300.50;;;3.76;78.89
15817;BME280;8009;50.070;8.232;2022-12-20T06:48:17;100297.50;;;3.83;78.38
15817;BME280;8009;50.070;8.232;2022-12-20T06:50:49;100294.63;;;3.67;78.94
15817;BME280;8009;50.070;8.232;2022-12-20T06:53:18;100288.53;;;3.64;79.61
15817;BME280;8009;50.070;8.232;2022-12-20T06:55:46;100285.00;;;3.84;78.70
15817;BME280;8009;50.070;8.232;2022-12-20T06:58:16;100288.22;;;3.92;78.42
15817;BME280;8009;50.070;8.232;2022-12-20T07:00:44;100288.69;;;3.81;79.54
15817;BME280;8009;50.070;8.232;2022-12-20T07:03:13;100302.94;;;3.82;79.79
15817;BME280;8009;50.070;8.232;2022-12-20T07:05:41;100287.31;;;3.93;78.80
15817;BME280;8009;50.070;8.232;2022-12-20T07:08:12;100277.88;;;3.84;78.44
15817;BME280;8009;50.070;8.232;2022-12-20T07:10:45;100276.22;;;3.82;79.75
15817;BME280;8009;50.070;8.232;2022-12-20T07:13:13;100271.53;;;3.87;79.78
15817;BME280;8009;50.070;8.232;2022-12-20T07:15:42;100279.63;;;3.85;79.65
15817;BME280;8009;50.070;8.232;2022-12-20T07:18:10;100270.38;;;3.72;80.50
15817;BME280;8009;50.070;8.232;2022-12-20T07:20:39;100269.63;;;3.89;79.24
15817;BME280;8009;50.070;8.232;2022-12-20T07:23:15;100274.84;;;3.92;78.40
15817;BME280;8009;50.070;8.232;2022-12-20T07:25:55;100275.53;;;3.97;79.50
15817;BME280;8009;50.070;8.232;2022-12-20T07:28:25;100277.94;;;3.83;78.64
15817;BME280;8009;50.070;8.232;2022-12-20T07:31:01;100265.25;;;4.08;79.01
15817;BME280;8009;50.070;8.232;2022-12-20T07:33:33;100266.28;;;4.04;77.77
15817;BME280;8009;50.070;8.232;2022-12-20T07:36:07;100269.47;;;3.94;77.90
15817;BME280;8009;50.070;8.232;2022-12-20T07:38:36;100274.31;;;3.84;79.17
15817;BME280;8009;50.070;8.232;2022-12-20T07:41:09;100251.41;;;3.99;77.85
15817;BME280;8009;50.070;8.232;2022-12-20T07:43:38;100247.16;;;3.95;78.26
15817;BME280;8009;50.070;8.232;2022-12-20T07:46:06;100260.63;;;3.91;77.87
15817;BME280;8009;50.070;8.232;2022-12-20T07:48:36;100268.53;;;3.95;78.38
15817;BME280;8009;50.070;8.232;2022-12-20T07:51:06;100267.06;;;3.87;77.52
15817;BME280;8009;50.070;8.232;2022-12-20T07:53:38;100246.84;;;3.82;79.33
15817;BME280;8009;50.070;8.232;2022-12-20T07:56:11;100244.91;;;4.04;78.10
15817;BME280;8009;50.070;8.232;2022-12-20T07:58:41;100245.72;;;4.06;78.04
15817;BME280;8009;50.070;8.232;2022-12-20T08:01:10;100248.47;;;3.84;79.25
15817;BME280;8009;50.070;8.232;2022-12-20T08:03:43;100250.06;;;4.09;78.88
15817;BME280;8009;50.070;8.232;2022-12-20T08:06:13;100241.53;;;4.20;78.93
15817;BME280;8009;50.070;8.232;2022-12-20T08:08:47;100235.59;;;3.94;78.32
15817;BME280;8009;50.070;8.232;2022-12-20T08:11:19;100231.72;;;4.01;79.09
15817;BME280;8009;50.070;8.232;2022-12-20T08:13:49;100233.91;;;3.91;79.88
15817;BME280;8009;50.070;8.232;2022-12-20T08:16:18;100246.16;;;3.56;81.56
15817;BME280;8009;50.070;8.232;2022-12-20T08:18:47;100241.19;;;3.88;79.99
15817;BME280;8009;50.070;8.232;2022-12-20T08:21:16;100232.97;;;4.13;79.29
15817;BME280;8009;50.070;8.232;2022-12-20T08:23:44;100237.97;;;4.21;79.09
15817;BME280;8009;50.070;8.232;2022-12-20T08:26:13;100231.28;;;4.10;79.33
15817;BME280;8009;50.070;8.232;2022-12-20T08:28:44;100230.50;;;4.08;79.11
15817;BME280;8009;50.070;8.232;2022-12-20T08:31:13;100227.09;;;4.05;79.36
15817;BME280;8009;50.070;8.232;2022-12-20T08:33:41;100226.09;;;4.26;79.25
15817;BME280;8009;50.070;8.232;2022-12-20T08:36:11;100235.06;;;3.86;80.24
15817;BME280;8009;50.070;8.232;2022-12-20T08:38:40;100235.13;;;4.05;80.37
15817;BME280;8009;50.070;8.232;2022-12-20T08:41:10;100227.91;;;4.26;79.32
15817;BME280;8009;50.070;8.232;2022-12-20T08:43:40;100216.09;;;4.31;79.35
15817;BME280;8009;50.070;8.232;2022-12-20T08:46:11;100225.50;;;4.20;79.86
15817;BME280;8009;50.070;8.232;2022-12-20T08:48:40;100228.28;;;4.37;78.70
15817;BME280;8009;50.070;8.232;2022-12-20T08:51:10;100227.31;;;4.19;79.56
15817;BME280;8009;50.070;8.232;2022-12-20T08:53:39;100242.78;;;3.92;81.36
15817;BME280;8009;50.070;8.232;2022-12-20T08:56:09;100229.25;;;4.15;79.44
15817;BME280;8009;50.070;8.232;2022-12-20T08:58:41;100224.16;;;4.30;79.77
15817;BME280;8009;50.070;8.232;2022-12-20T09:01:14;100231.19;;;4.32;78.65
15817;BME280;8009;50.070;8.232;2022-12-20T09:03:44;100217.72;;;4.34;78.54
15817;BME280;8009;50.070;8.232;2022-12-20T09:06:15;100214.84;;;4.38;79.03
15817;BME280;8009;50.070;8.232;2022-12-20T09:08:44;100219.91;;;4.45;79.04
15817;BME280;8009;50.070;8.232;2022-12-20T09:11:15;100224.66;;;4.38;79.27
15817;BME280;8009;50.070;8.232;2022-12-20T09:13:47;100226.06;;;4.47;79.23
15817;BME280;8009;50.070;8.232;2022-12-20T09:16:21;100230.47;;;4.67;77.46
15817;BME280;8009;50.070;8.232;2022-12-20T09:18:51;100225.13;;;4.67;78.25
15817;BME280;8009;50.070;8.232;2022-12-20T09:21:20;100221.44;;;4.50;78.81
15817;BME280;8009;50.070;8.232;2022-12-20T09:23:49;100220.72;;;4.47;78.46
15817;BME280;8009;50.070;8.232;2022-12-20T09:26:22;100214.34;;;4.49;79.06
15817;BME280;8009;50.070;8.232;2022-12-20T09:28:51;100217.81;;;4.51;78.15
15817;BME280;8009;50.070;8.232;2022-12-20T09:31:24;100211.97;;;4.43;77.90
15817;BME280;8009;50.070;8.232;2022-12-20T09:33:54;100216.22;;;4.47;78.52
15817;BME280;8009;50.070;8.232;2022-12-20T09:36:25;100210.06;;;4.26;80.08
15817;BME280;8009;50.070;8.232;2022-12-20T09:38:54;100220.25;;;4.37;78.76
15817;BME280;8009;50.070;8.232;2022-12-20T09:41:28;100213.69;;;4.63;79.06
15817;BME280;8009;50.070;8.232;2022-12-20T09:44:03;100213.75;;;4.43;80.26
15817;BME280;8009;50.070;8.232;2022-12-20T09:46:34;100198.00;;;4.55;79.84
15817;BME280;8009;50.070;8.232;2022-12-20T09:49:03;100194.03;;;4.64;79.21
15817;BME280;8009;50.070;8.232;2022-12-20T09:51:46;100200.38;;;4.61;79.38
15817;BME280;8009;50.070;8.232;2022-12-20T09:54:31;100197.00;;;4.58;77.79
15817;BME280;8009;50.070;8.232;2022-12-20T09:57:15;100197.50;;;4.66;79.49
15817;BME280;8009;50.070;8.232;2022-12-20T09:59:47;100198.97;;;4.54;79.31
15817;BME280;8009;50.070;8.232;2022-12-20T10:02:29;100190.41;;;4.65;78.41
15817;BME280;8009;50.070;8.232;2022-12-20T10:04:58;100189.75;;;4.79;79.18
15817;BME280;8009;50.070;8.232;2022-12-20T10:07:34;100194.25;;;4.40;79.83
15817;BME280;8009;50.070;8.232;2022-12-20T10:10:22;100183.63;;;4.58;80.21
15817;BME280;8009;50.070;8.232;2022-12-20T10:12:59;100189.09;;;4.74;79.24
15817;BME280;8009;50.070;8.232;2022-12-20T10:15:36;100189.38;;;4.86;77.87
15817;BME280;8009;50.070;8.232;2022-12-20T10:18:24;100182.09;;;4.71;77.78
15817;BME280;8009;50.070;8.232;2022-12-20T10:21:02;100175.84;;;4.89;78.85
15817;BME280;8009;50.070;8.232;2022-12-20T10:23:39;100172.47;;;5.03;78.41
15817;BME280;8009;50.070;8.232;2022-12-20T10:26:12;100170.09;;;4.97;77.52
15817;BME280;8009;50.070;8.232;2022-12-20T10:28:40;100165.22;;;5.05;78.09
15817;BME280;8009;50.070;8.232;2022-12-20T10:31:12;100165.19;;;4.88;79.18
15817;BME280;8009;50.070;8.232;2022-12-20T10:33:44;100163.03;;;4.96;79.20
15817;BME280;8009;50.070;8.232;2022-12-20T10:36:24;100168.16;;;5.18;78.43
15817;BME280;8009;50.070;8.232;2022-12-20T10:38:54;100169.72;;;5.22;78.04
15817;BME280;8009;50.070;8.232;2022-12-20T10:41:24;100158.63;;;5.30;77.84
15817;BME280;8009;50.070;8.232;2022-12-20T10:43:58;100162.03;;;5.16;79.17
15817;BME280;8009;50.070;8.232;2022-12-20T10:46:37;100161.75;;;5.03;78.48
15817;BME280;8009;50.070;8.232;2022-12-20T10:49:26;100156.50;;;5.19;77.86
15817;BME280;8009;50.070;8.232;2022-12-20T10:51:57;100150.66;;;5.11;76.73
15817;BME280;8009;50.070;8.232;2022-12-20T10:54:30;100144.19;;;5.15;77.55
15817;BME280;8009;50.070;8.232;2022-12-20T10:57:01;100142.56;;;5.30;77.89
15817;BME280;8009;50.070;8.232;2022-12-20T10:59:33;100140.91;;;5.10;77.83
15817;BME280;8009;50.070;8.232;2022-12-20T11:02:23;100141.38;;;5.18;78.05
15817;BME280;8009;50.070;8.232;2022-12-20T11:05:03;100142.41;;;5.16;77.72
15817;BME280;8009;50.070;8.232;2022-12-20T11:07:34;100128.16;;;5.32;79.02
15817;BME280;8009;50.070;8.232;2022-12-20T11:10:17;100136.13;;;5.17;78.26
15817;BME280;8009;50.070;8.232;2022-12-20T11:12:51;100130.25;;;4.91;78.79
15817;BME280;8009;50.070;8.232;2022-12-20T11:15:22;100138.94;;;4.96;78.88
15817;BME280;8009;50.070;8.232;2022-12-20T11:17:55;100138.63;;;5.02;79.22
15817;BME280;8009;50.070;8.232;2022-12-20T11:20:35;100116.50;;;5.33;78.48
15817;BME280;8009;50.070;8.232;2022-12-20T11:23:14;100119.50;;;5.27;77.93
15817;BME280;8009;50.070;8.232;2022-12-20T11:26:02;100124.78;;;5.11;78.39
15817;BME280;8009;50.070;8.232;2022-12-20T11:28:47;100115.47;;;5.36;77.82
15817;BME280;8009;50.070;8.232;2022-12-20T11:31:22;100104.66;;;5.37;77.65
15817;BME280;8009;50.070;8.232;2022-12-20T11:34:03;100083.38;;;5.52;78.66
15817;BME280;8009;50.070;8.232;2022-12-20T11:36:54;100076.56;;;5.46;78.27
15817;BME280;8009;50.070;8.232;2022-12-20T11:39:29;100057.63;;;5.49;77.37
15817;BME280;8009;50.070;8.232;2022-12-20T11:42:03;100061.59;;;5.42;78.35
15817;BME280;8009;50.070;8.232;2022-12-20T11:44:46;100054.47;;;5.58;78.42
15817;BME280;8009;50.070;8.232;2022-12-20T11:47:32;100044.44;;;5.62;78.48
15817;BME280;8009;50.070;8.232;2022-12-20T11:50:32;100054.69;;;5.21;79.50
15817;BME280;8009;50.070;8.232;2022-12-20T11:53:07;100039.88;;;5.31;78.64
15817;BME280;8009;50.070;8.232;2022-12-20T11:55:40;100033.44;;;5.51;78.54
15817;BME280;8009;50.070;8.232;2022-12-20T11:58:13;100044.75;;;5.40;78.92
15817;BME280;8009;50.070;8.232;2022-12-20T12:00:46;100042.50;;;5.48;78.27
15817;BME280;8009;50.070;8.232;2022-12-20T12:03:26;100056.88;;;5.63;78.12
15817;BME280;8009;50.070;8.232;2022-12-20T12:05:58;100067.03;;;5.74;77.96
15817;BME280;8009;50.070;8.232;2022-12-20T12:08:38;100040.13;;;5.75;78.09
15817;BME280;8009;50.070;8.232;2022-12-20T12:11:13;100027.97;;;5.85;77.93
15817;BME280;8009;50.070;8.232;2022-12-20T12:13:44;100021.38;;;5.59;79.34
15817;BME280;8009;50.070;8.232;2022-12-20T12:16:17;100030.28;;;5.76;77.86
15817;BME280;8009;50.070;8.232;2022-12-20T12:18:47;100028.97;;;5.51;77.57
15817;BME280;8009;50.070;8.232;2022-12-20T12:21:22;100027.69;;;5.74;78.13
15817;BME280;8009;50.070;8.232;2022-12-20T12:24:18;100020.09;;;5.82;78.72
15817;BME280;8009;50.070;8.232;2022-12-20T12:26:52;100032.63;;;5.82;76.51
15817;BME280;8009;50.070;8.232;2022-12-20T12:29:29;100028.34;;;5.95;77.52
15817;BME280;8009;50.070;8.232;2022-12-20T12:32:04;100027.25;;;5.99;77.62
15817;BME280;8009;50.070;8.232;2022-12-20T12:34:50;100026.16;;;5.86;77.82
15817;BME280;8009;50.070;8.232;2022-12-20T12:37:36;100009.81;;;5.91;78.06
15817;BME280;8009;50.070;8.232;2022-12-20T12:40:33;100002.38;;;5.80;78.14
15817;BME280;8009;50.070;8.232;2022-12-20T12:43:16;100003.00;;;5.85;78.48
15817;BME280;8009;50.070;8.232;2022-12-20T12:45:51;99998.22;;;5.90;77.12
15817;BME280;8009;50.070;8.232;2022-12-20T12:48:26;99999.31;;;6.03;77.90
15817;BME280;8009;50.070;8.232;2022-12-20T12:50:57;99996.44;;;6.06;77.70
15817;BME280;8009;50.070;8.232;2022-12-20T12:53:31;99991.13;;;6.21;77.25
15817;BME280;8009;50.070;8.232;2022-12-20T12:59:40;99970.31;;;5.94;77.81
15817;BME280;8009;50.070;8.232;2022-12-20T13:02:49;99979.31;;;6.09;76.79
15817;BME280;8009;50.070;8.232;2022-12-20T13:05:33;99975.16;;;6.19;77.39
15817;BME280;8009;50.070;8.232;2022-12-20T13:08:03;99976.19;;;5.85;78.89
15817;BME280;8009;50.070;8.232;2022-12-20T13:11:00;99978.06;;;5.83;79.06
15817;BME280;8009;50.070;8.232;2022-12-20T13:13:29;99970.16;;;5.97;78.58
15817;BME280;8009;50.070;8.232;2022-12-20T13:16:26;99963.91;;;6.13;77.84
15817;BME280;8009;50.070;8.232;2022-12-20T13:19:09;99970.75;;;6.02;77.56
15817;BME280;8009;50.070;8.232;2022-12-20T13:21:41;99970.75;;;6.18;77.34
15817;BME280;8009;50.070;8.232;2022-12-20T13:24:38;99964.56;;;6.32;77.28
15817;BME280;8009;50.070;8.232;2022-12-20T13:27:23;99966.75;;;6.25;76.54
15817;BME280;8009;50.070;8.232;2022-12-20T13:29:59;99964.81;;;5.97;78.93
15817;BME280;8009;50.070;8.232;2022-12-20T13:33:02;99975.81;;;5.91;79.53
15817;BME280;8009;50.070;8.232;2022-12-20T13:35:57;99944.84;;;6.33;77.69
15817;BME280;8009;50.070;8.232;2022-12-20T13:38:49;99973.00;;;5.94;76.88
15817;BME280;8009;50.070;8.232;2022-12-20T13:41:40;99957.78;;;6.41;77.40
15817;BME280;8009;50.070;8.232;2022-12-20T13:44:39;99957.72;;;6.42;77.15
15817;BME280;8009;50.070;8.232;2022-12-20T13:47:34;99968.03;;;6.34;76.77
15817;BME280;8009;50.070;8.232;2022-12-20T13:50:24;99973.19;;;6.37;77.10
15817;BME280;8009;50.070;8.232;2022-12-20T13:52:53;99966.56;;;6.28;76.88